Time;durP1;ratioP1;P1;durP2;ratioP2;P2;SDS_P1;SDS_P2;PMS_P1;PMS_P2;Temp;Humidity;BMP_temperature;BMP_pressure;BME280_temperature;BME280_humidity;BME280_pressure;Samples;Min_cycle;Max_cycle;Signal;HPM_P1;HPM_P2
2024/01/09 00:01:47;;;;;;;9.50;4.67;;;;;;;-6.98;79.15;102903.22;5013565;28;20222;-69
2024/01/09 00:04:13;;;;;;;6.97;3.83;;;;;;;-6.99;79.08;102906.66;5017128;28;20222;-70
2024/01/09 00:06:40;;;;;;;6.63;4.13;;;;;;;-7.02;79.39;102907.41;5014659;28;20294;-69
2024/01/09 00:09:06;;;;;;;8.47;4.37;;;;;;;-7.03;79.87;102908.22;5012201;28;20203;-69
2024/01/09 00:11:33;;;;;;;10.23;4.63;;;;;;;-7.01;79.63;102907.47;5009667;28;20230;-69
2024/01/09 00:13:59;;;;;;;7.57;4.57;;;;;;;-7.00;79.67;102905.75;5011225;28;20410;-68
2024/01/09 00:16:26;;;;;;;10.30;4.73;;;;;;;-7.03;80.26;102903.91;5004868;28;20199;-70
2024/01/09 00:18:54;;;;;;;8.67;5.20;;;;;;;-7.04;79.85;102906.44;5009827;28;20210;-69
2024/01/09 00:21:20;;;;;;;8.10;4.20;;;;;;;-7.06;80.08;102906.38;5010696;28;21081;-71
2024/01/09 00:23:47;;;;;;;8.43;5.03;;;;;;;-7.06;80.54;102895.13;5008750;28;20624;-69
2024/01/09 00:26:13;;;;;;;9.80;5.40;;;;;;;-7.13;80.32;102893.94;5010087;28;20198;-69
2024/01/09 00:28:40;;;;;;;8.70;5.23;;;;;;;-7.15;80.92;102893.00;5003032;28;20356;-69
2024/01/09 00:31:06;;;;;;;9.77;4.80;;;;;;;-7.16;80.77;102896.41;5008453;28;20226;-71
2024/01/09 00:33:33;;;;;;;10.87;5.53;;;;;;;-7.16;80.85;102901.56;5010985;28;20573;-69
2024/01/09 00:36:02;;;;;;;8.80;4.60;;;;;;;-7.17;81.32;102902.44;5005508;28;20199;-69
2024/01/09 00:38:29;;;;;;;8.50;4.63;;;;;;;-7.18;81.74;102887.72;5016201;28;20592;-69
2024/01/09 00:40:55;;;;;;;9.73;5.13;;;;;;;-7.19;81.56;102888.53;5006275;28;20610;-69
2024/01/09 00:43:22;;;;;;;11.43;5.60;;;;;;;-7.20;81.37;102884.16;5014000;28;20211;-69
2024/01/09 00:45:48;;;;;;;9.83;4.63;;;;;;;-7.19;81.76;102885.03;5004489;28;20777;-69
2024/01/09 00:48:15;;;;;;;11.47;5.23;;;;;;;-7.19;81.60;102890.22;5008128;28;20702;-68
2024/01/09 00:50:42;;;;;;;10.93;5.73;;;;;;;-7.19;81.70;102878.16;5013037;28;20210;-69
2024/01/09 00:53:10;;;;;;;9.60;4.87;;;;;;;-7.24;81.90;102879.66;5014406;28;20255;-69
2024/01/09 00:55:36;;;;;;;10.90;5.73;;;;;;;-7.26;82.19;102876.09;5007006;28;20215;-68
2024/01/09 00:58:03;;;;;;;13.43;5.87;;;;;;;-7.28;82.09;102869.97;5009941;28;20209;-69
2024/01/09 01:00:29;;;;;;;12.43;6.00;;;;;;;-7.27;82.59;102870.84;5015325;28;20617;-68
2024/01/09 01:02:56;;;;;;;10.90;5.47;;;;;;;-7.26;82.31;102875.22;5007210;28;20223;-69
2024/01/09 01:05:22;;;;;;;10.37;5.33;;;;;;;-7.28;82.18;102872.56;5016203;28;20231;-69
2024/01/09 01:07:49;;;;;;;11.63;5.77;;;;;;;-7.27;82.20;102871.75;5007751;28;20214;-70
2024/01/09 01:10:17;;;;;;;9.33;5.50;;;;;;;-7.32;82.53;102882.69;5014293;28;20284;-69
2024/01/09 01:12:43;;;;;;;13.00;6.50;;;;;;;-7.33;82.46;102883.50;5009175;28;20222;-70
2024/01/09 01:15:10;;;;;;;11.53;5.83;;;;;;;-7.33;83.08;102892.16;5013671;28;20233;-69
2024/01/09 01:17:36;;;;;;;12.03;6.50;;;;;;;-7.29;82.75;102890.59;5015238;28;20214;-69
2024/01/09 01:20:03;;;;;;;10.23;6.47;;;;;;;-7.31;82.95;102887.94;5010103;28;20214;-70
2024/01/09 01:22:30;;;;;;;13.50;6.80;;;;;;;-7.34;82.51;102895.56;5013713;28;20277;-68
2024/01/09 01:24:57;;;;;;;11.97;6.50;;;;;;;-7.34;82.40;102886.94;5011568;28;20697;-68
2024/01/09 01:27:25;;;;;;;12.70;6.37;;;;;;;-7.36;82.81;102899.81;5016547;28;20203;-68
2024/01/09 01:29:52;;;;;;;12.23;5.37;;;;;;;-7.38;82.27;102893.69;5012292;28;20207;-69
2024/01/09 01:32:18;;;;;;;10.23;5.70;;;;;;;-7.39;82.84;102904.84;5015481;28;20460;-70
2024/01/09 01:34:44;;;;;;;8.47;5.60;;;;;;;-7.33;82.36;102902.53;5015589;28;20202;-69
2024/01/09 01:37:11;;;;;;;11.57;5.40;;;;;;;-7.32;82.78;102903.41;5011737;28;20218;-68
2024/01/09 01:39:37;;;;;;;10.23;4.97;;;;;;;-7.36;82.58;102905.88;5009060;28;20203;-68
2024/01/09 01:42:04;;;;;;;11.37;5.27;;;;;;;-7.37;82.87;102904.13;5009662;28;20242;-70
2024/01/09 01:44:32;;;;;;;11.13;5.73;;;;;;;-7.37;82.71;102913.59;5009621;28;20391;-70
2024/01/09 01:46:58;;;;;;;9.07;4.97;;;;;;;-7.38;83.00;102906.63;5008964;28;20210;-71
2024/01/09 01:49:26;;;;;;;11.93;5.33;;;;;;;-7.42;83.50;102905.59;5012433;28;20294;-69
2024/01/09 01:51:52;;;;;;;7.80;4.80;;;;;;;-7.42;83.31;102909.88;5013447;28;20227;-70
2024/01/09 01:54:21;;;;;;;8.27;5.07;;;;;;;-7.46;83.13;102908.84;5009842;28;20230;-70
2024/01/09 01:56:48;;;;;;;10.83;5.33;;;;;;;-7.48;83.51;102901.81;5009563;28;21848;-68
2024/01/09 01:59:17;;;;;;;12.23;5.93;;;;;;;-7.50;83.80;102913.81;5007283;28;20215;-71
2024/01/09 02:01:47;;;;;;;12.47;5.23;;;;;;;-7.53;83.55;102905.94;5013670;28;20234;-71
2024/01/09 02:04:14;;;;;;;12.20;6.13;;;;;;;-7.53;83.44;102906.81;5009517;28;20705;-70
2024/01/09 02:06:41;;;;;;;10.43;5.20;;;;;;;-7.53;83.99;102913.69;5010700;28;20221;-70
2024/01/09 02:09:07;;;;;;;12.63;5.87;;;;;;;-7.53;83.77;102917.16;5008189;28;20199;-70
2024/01/09 02:11:34;;;;;;;11.00;5.33;;;;;;;-7.54;83.50;102919.69;5011870;28;20222;-70
2024/01/09 02:14:01;;;;;;;12.13;5.43;;;;;;;-7.52;83.72;102916.31;5009922;28;20226;-70
2024/01/09 02:16:27;;;;;;;9.00;5.40;;;;;;;-7.50;83.39;102921.56;5012888;28;20233;-71
2024/01/09 02:18:54;;;;;;;8.70;4.77;;;;;;;-7.52;83.59;102916.31;5008985;28;20207;-70
2024/01/09 02:21:21;;;;;;;11.03;6.07;;;;;;;-7.55;83.62;102917.91;5009610;28;20223;-70
2024/01/09 02:23:48;;;;;;;8.63;5.27;;;;;;;-7.59;84.04;102918.56;5011816;28;20217;-71
2024/01/09 02:26:20;;;;;;;8.73;5.63;;;;;;;-7.61;84.02;102922.78;5012579;28;20238;-70
2024/01/09 02:28:50;;;;;;;13.37;5.37;;;;;;;-7.59;84.00;102931.50;5012683;28;20198;-70
2024/01/09 02:31:18;;;;;;;10.60;6.07;;;;;;;-7.61;83.94;102918.50;5009222;28;20227;-70
2024/01/09 02:33:46;;;;;;;11.40;5.40;;;;;;;-7.57;83.91;102916.94;5012373;28;20211;-70
2024/01/09 02:36:13;;;;;;;10.80;6.03;;;;;;;-7.61;83.81;102925.38;5010826;28;20274;-70
2024/01/09 02:38:39;;;;;;;9.93;5.47;;;;;;;-7.67;83.70;102933.72;5009433;28;20848;-71
2024/01/09 02:41:06;;;;;;;9.43;5.37;;;;;;;-7.69;83.81;102925.00;5006223;28;20761;-70
2024/01/09 02:43:32;;;;;;;10.67;6.00;;;;;;;-7.72;83.77;102924.88;5010777;28;20207;-71
2024/01/09 02:45:59;;;;;;;11.40;5.23;;;;;;;-7.75;83.98;102920.44;5008992;28;20237;-70
2024/01/09 02:48:26;;;;;;;11.13;5.23;;;;;;;-7.78;84.49;102909.94;5006556;28;20217;-70
2024/01/09 02:50:53;;;;;;;9.83;5.60;;;;;;;-7.79;84.61;102918.53;5012598;28;20214;-70
2024/01/09 02:53:19;;;;;;;10.63;5.37;;;;;;;-7.82;84.10;102918.38;5010817;28;20207;-69
2024/01/09 02:55:46;;;;;;;11.13;6.03;;;;;;;-7.83;83.94;102907.94;5011389;28;20325;-70
2024/01/09 02:58:12;;;;;;;11.40;5.80;;;;;;;-7.82;84.40;102907.13;5012262;28;20210;-70
2024/01/09 03:00:39;;;;;;;10.87;6.20;;;;;;;-7.82;84.20;102901.97;5013189;28;20216;-70
2024/01/09 03:03:05;;;;;;;9.90;4.90;;;;;;;-7.85;84.37;102913.03;5012111;28;20225;-69
2024/01/09 03:05:33;;;;;;;11.27;5.70;;;;;;;-7.86;84.56;102911.28;5012142;28;20222;-70
2024/01/09 03:07:59;;;;;;;11.90;5.90;;;;;;;-7.85;85.12;102909.56;5010509;28;20214;-69
2024/01/09 03:10:26;;;;;;;10.47;5.27;;;;;;;-7.89;84.55;102913.75;5009249;28;20618;-70
2024/01/09 03:12:52;;;;;;;10.43;5.67;;;;;;;-7.88;84.42;102907.72;5013087;28;20713;-68
2024/01/09 03:15:19;;;;;;;9.23;5.43;;;;;;;-7.90;84.89;102900.72;5010547;28;20215;-70
2024/01/09 03:17:45;;;;;;;10.60;5.40;;;;;;;-7.92;84.66;102905.81;5010458;28;20214;-69
2024/01/09 03:20:12;;;;;;;7.90;4.90;;;;;;;-7.91;85.04;102910.19;5011381;28;20217;-68
2024/01/09 03:22:39;;;;;;;10.33;5.27;;;;;;;-7.93;84.93;102904.06;5006552;28;20235;-70
2024/01/09 03:25:06;;;;;;;13.10;5.50;;;;;;;-7.95;84.44;102912.56;5010169;28;20230;-70
2024/01/09 03:27:33;;;;;;;11.40;5.47;;;;;;;-7.94;84.62;102906.56;5004739;28;20237;-70
2024/01/09 03:29:59;;;;;;;9.33;5.37;;;;;;;-7.96;84.62;102903.91;5011658;28;20217;-70
2024/01/09 03:32:26;;;;;;;10.70;6.23;;;;;;;-7.99;84.93;102903.75;5012432;28;20497;-70
2024/01/09 03:34:52;;;;;;;10.13;5.03;;;;;;;-8.01;85.22;102902.78;5002108;28;20206;-68
2024/01/09 03:37:19;;;;;;;10.27;5.73;;;;;;;-8.01;85.79;102902.78;5009231;28;20596;-70
2024/01/09 03:39:47;;;;;;;9.77;5.53;;;;;;;-8.03;85.14;102899.25;5008173;28;20203;-70
2024/01/09 03:42:13;;;;;;;10.07;5.40;;;;;;;-8.01;85.32;102899.31;5003233;28;20234;-70
2024/01/09 03:44:40;;;;;;;13.63;5.87;;;;;;;-8.02;85.23;102898.44;5002512;28;20660;-71
2024/01/09 03:47:06;;;;;;;12.40;5.77;;;;;;;-8.03;85.88;102911.28;5003453;28;20818;-70
2024/01/09 03:49:32;;;;;;;12.33;5.20;;;;;;;-8.03;85.28;102894.06;5008735;28;20229;-69
2024/01/09 03:51:59;;;;;;;12.47;5.63;;;;;;;-8.05;85.75;102904.34;5001577;28;20231;-67
2024/01/09 03:54:25;;;;;;;11.47;5.90;;;;;;;-8.08;85.78;102899.03;5006662;28;20203;-70
2024/01/09 03:56:53;;;;;;;9.33;5.10;;;;;;;-8.11;85.54;102903.16;5014780;28;20238;-70
2024/01/09 03:59:19;;;;;;;12.10;6.07;;;;;;;-8.14;85.83;102906.50;5007283;28;20695;-70
2024/01/09 04:01:46;;;;;;;8.67;5.40;;;;;;;-8.15;85.52;102898.66;5008577;28;20487;-70
2024/01/09 04:04:12;;;;;;;12.77;6.10;;;;;;;-8.17;85.56;102893.41;5006903;28;20206;-70
2024/01/09 04:06:43;;;;;;;10.83;5.73;;;;;;;-8.17;85.66;102898.59;5018307;28;20238;-69
2024/01/09 04:09:10;;;;;;;10.03;5.80;;;;;;;-8.16;85.92;102897.78;5004011;28;20261;-70
2024/01/09 04:11:42;;;;;;;10.37;5.63;;;;;;;-8.17;86.01;102893.41;5014104;28;20763;-70
2024/01/09 04:14:10;;;;;;;13.47;6.13;;;;;;;-8.18;85.71;102901.97;5004338;28;20250;-71
2024/01/09 04:16:36;;;;;;;11.73;6.07;;;;;;;-8.17;86.06;102892.53;5014630;28;20199;-70
2024/01/09 04:19:03;;;;;;;11.83;6.40;;;;;;;-8.17;86.05;102902.88;5005123;28;20233;-71
2024/01/09 04:21:29;;;;;;;9.23;5.63;;;;;;;-8.18;85.76;102901.97;5013217;28;20234;-70
2024/01/09 04:23:56;;;;;;;13.03;6.77;;;;;;;-8.22;86.18;102899.16;5010135;28;20242;-68
2024/01/09 04:26:22;;;;;;;12.87;7.47;;;;;;;-8.26;86.63;102892.97;5008906;28;20227;-70
2024/01/09 04:28:48;;;;;;;10.50;5.73;;;;;;;-8.25;86.15;102899.91;5010050;28;20581;-70
2024/01/09 04:31:16;;;;;;;10.90;5.67;;;;;;;-8.26;86.28;102889.50;5009406;28;20475;-70
2024/01/09 04:33:43;;;;;;;11.60;6.23;;;;;;;-8.28;86.58;102892.00;5011608;28;20205;-71
2024/01/09 04:36:14;;;;;;;10.83;6.17;;;;;;;-8.27;86.27;102882.56;5009651;28;20203;-70
2024/01/09 04:38:41;;;;;;;10.90;6.30;;;;;;;-8.29;86.33;102887.66;5009152;28;20365;-70
2024/01/09 04:41:07;;;;;;;9.53;5.53;;;;;;;-8.29;86.61;102892.81;5014842;28;20221;-70
2024/01/09 04:43:34;;;;;;;11.77;6.13;;;;;;;-8.29;86.60;102894.53;5009050;28;20214;-69
2024/01/09 04:46:00;;;;;;;10.23;5.87;;;;;;;-8.30;86.85;102883.28;5015565;28;20229;-71
2024/01/09 04:48:28;;;;;;;8.87;5.53;;;;;;;-8.31;86.52;102885.81;5015573;28;20585;-69
2024/01/09 04:50:54;;;;;;;10.70;5.90;;;;;;;-8.31;86.47;102884.09;5004479;28;20674;-69
2024/01/09 04:53:21;;;;;;;11.27;6.10;;;;;;;-8.31;86.41;102878.03;5012444;28;20207;-70
2024/01/09 04:55:47;;;;;;;10.70;5.50;;;;;;;-8.30;86.40;102879.81;5020285;28;20198;-70
2024/01/09 04:58:14;;;;;;;10.30;5.87;;;;;;;-8.34;86.21;102878.81;5017524;28;20206;-70
2024/01/09 05:00:40;;;;;;;11.53;5.70;;;;;;;-8.34;86.39;102889.16;5021220;28;20693;-71
2024/01/09 05:03:06;;;;;;;13.63;5.67;;;;;;;-8.36;86.90;102890.78;5016045;28;20222;-70
2024/01/09 05:05:34;;;;;;;9.53;5.70;;;;;;;-8.36;86.70;102880.44;5015911;28;20241;-70
2024/01/09 05:08:01;;;;;;;12.27;5.70;;;;;;;-8.37;86.56;102878.66;5016640;28;20221;-71
2024/01/09 05:10:30;;;;;;;12.13;5.53;;;;;;;-8.39;86.90;102881.97;5014857;28;20207;-70
2024/01/09 05:12:56;;;;;;;12.93;6.50;;;;;;;-8.39;86.74;102884.56;5013997;28;20251;-70
2024/01/09 05:15:23;;;;;;;11.50;6.10;;;;;;;-8.40;86.52;102878.50;5013378;28;20265;-71
2024/01/09 05:17:49;;;;;;;12.53;6.10;;;;;;;-8.39;86.32;102885.44;5018605;28;20445;-70
2024/01/09 05:20:16;;;;;;;11.63;5.87;;;;;;;-8.42;86.34;102883.59;5010984;28;20213;-70
2024/01/09 05:22:43;;;;;;;17.43;5.97;;;;;;;-8.42;86.83;102886.19;5019555;28;20235;-71
2024/01/09 05:25:10;;;;;;;10.27;5.40;;;;;;;-8.42;86.53;102887.91;5015210;28;20210;-69
2024/01/09 05:27:36;;;;;;;9.60;5.60;;;;;;;-8.43;86.83;102891.31;5010728;28;20235;-70
2024/01/09 05:30:03;;;;;;;11.50;6.03;;;;;;;-8.45;86.53;102880.00;5003345;28;20218;-69
2024/01/09 05:32:30;;;;;;;11.33;5.67;;;;;;;-8.45;87.12;102886.06;5006122;28;20603;-71
2024/01/09 05:34:56;;;;;;;12.47;5.87;;;;;;;-8.44;87.24;102880.06;5011728;28;20206;-70
2024/01/09 05:37:23;;;;;;;9.00;6.07;;;;;;;-8.44;87.01;102885.25;5002248;28;20223;-68
2024/01/09 05:39:50;;;;;;;9.97;5.43;;;;;;;-8.42;87.19;102882.75;5005108;28;20214;-70
2024/01/09 05:42:17;;;;;;;9.67;6.00;;;;;;;-8.43;86.66;102889.59;5013785;28;20471;-70
2024/01/09 05:44:43;;;;;;;11.50;6.13;;;;;;;-8.43;86.53;102887.03;5016081;28;20199;-69
2024/01/09 05:47:10;;;;;;;10.90;5.03;;;;;;;-8.44;86.63;102880.06;5009047;28;20230;-71
2024/01/09 05:49:36;;;;;;;11.03;5.60;;;;;;;-8.45;86.37;102891.22;5011492;28;20450;-69
2024/01/09 05:52:03;;;;;;;11.37;5.83;;;;;;;-8.46;86.28;102885.97;4994387;28;20241;-70
2024/01/09 05:54:29;;;;;;;10.23;5.67;;;;;;;-8.45;86.77;102890.34;5017169;28;20447;-70
2024/01/09 05:56:57;;;;;;;10.30;4.70;;;;;;;-8.48;86.63;102891.06;5007973;28;20195;-69
2024/01/09 05:59:24;;;;;;;10.30;4.93;;;;;;;-8.51;87.02;102890.91;5009535;28;20568;-70
2024/01/09 06:01:50;;;;;;;12.57;6.17;;;;;;;-8.52;87.04;102893.41;5019523;28;20245;-70
2024/01/09 06:04:17;;;;;;;13.83;6.80;;;;;;;-8.54;86.93;102893.31;5011896;28;20206;-70
2024/01/09 06:06:43;;;;;;;13.03;6.17;;;;;;;-8.52;87.19;102894.28;5017123;28;20230;-70
2024/01/09 06:09:09;;;;;;;11.53;5.57;;;;;;;-8.55;87.02;102901.00;5004431;28;20466;-69
2024/01/09 06:11:36;;;;;;;11.77;5.83;;;;;;;-8.57;87.35;102893.16;5014097;28;20615;-69
2024/01/09 06:14:04;;;;;;;13.27;6.67;;;;;;;-8.57;87.41;102900.91;5013027;28;20605;-68
2024/01/09 06:16:30;;;;;;;10.10;5.93;;;;;;;-8.54;86.77;102903.66;5012102;28;20849;-70
2024/01/09 06:18:57;;;;;;;12.93;5.70;;;;;;;-8.54;86.82;102895.03;5010677;28;20843;-70
2024/01/09 06:21:23;;;;;;;9.90;5.53;;;;;;;-8.53;86.90;102910.59;5007518;28;20230;-70
2024/01/09 06:23:50;;;;;;;11.50;5.37;;;;;;;-8.55;87.74;102909.63;5015065;28;20473;-77
2024/01/09 06:26:16;;;;;;;10.50;5.87;;;;;;;-8.59;87.25;102910.28;5016702;28;20498;-71
2024/01/09 06:28:43;;;;;;;10.87;6.60;;;;;;;-8.60;87.84;102911.13;5012497;28;20956;-74
2024/01/09 06:31:11;;;;;;;11.13;5.87;;;;;;;-8.62;87.53;102901.53;5009668;28;20230;-74
2024/01/09 06:33:37;;;;;;;9.70;5.60;;;;;;;-8.60;87.84;102913.72;5009432;28;20203;-74
2024/01/09 06:36:04;;;;;;;10.80;6.00;;;;;;;-8.58;87.49;102903.44;5004429;28;20441;-72
2024/01/09 06:38:31;;;;;;;9.17;5.67;;;;;;;-8.57;87.53;102906.09;5006086;28;20226;-74
2024/01/09 06:40:58;;;;;;;9.47;5.90;;;;;;;-8.56;87.34;102913.03;5012583;28;20441;-72
2024/01/09 06:43:25;;;;;;;13.53;6.63;;;;;;;-8.55;87.36;102917.38;5007533;28;20667;-73
2024/01/09 06:45:51;;;;;;;11.97;5.80;;;;;;;-8.55;87.01;102914.81;5012995;28;20214;-74
2024/01/09 06:48:19;;;;;;;9.87;5.70;;;;;;;-8.55;87.38;102908.75;5009133;28;20399;-68
2024/01/09 06:50:46;;;;;;;11.70;5.50;;;;;;;-8.57;87.54;102911.25;5006784;28;20525;-68
2024/01/09 06:53:12;;;;;;;12.83;6.03;;;;;;;-8.57;87.00;102911.25;5009782;28;20450;-70
2024/01/09 06:55:39;;;;;;;8.53;4.90;;;;;;;-8.53;86.83;102917.47;5011765;28;20560;-68
2024/01/09 06:58:05;;;;;;;10.47;5.47;;;;;;;-8.49;86.89;102919.41;5015907;28;20441;-67
2024/01/09 07:00:34;;;;;;;12.73;5.77;;;;;;;-8.53;86.78;102908.03;5019447;28;20444;-69
2024/01/09 07:03:00;;;;;;;12.77;6.23;;;;;;;-8.51;87.12;102915.84;5014712;28;20230;-69
2024/01/09 07:05:28;;;;;;;9.37;5.57;;;;;;;-8.51;87.16;102915.84;5010310;28;20215;-68
2024/01/09 07:07:54;;;;;;;12.23;6.43;;;;;;;-8.48;87.29;102910.84;5007558;28;20673;-69
2024/01/09 07:10:21;;;;;;;11.53;6.20;;;;;;;-8.48;87.38;102908.25;5003847;28;20218;-70
2024/01/09 07:12:47;;;;;;;13.20;6.53;;;;;;;-8.49;87.06;102909.97;5008849;28;20855;-70
2024/01/09 07:15:14;;;;;;;12.10;6.00;;;;;;;-8.49;86.76;102906.47;5001513;28;20977;-69
2024/01/09 07:17:41;;;;;;;10.53;6.47;;;;;;;-8.50;86.64;102903.00;5013244;28;20203;-69
2024/01/09 07:20:08;;;;;;;8.73;5.23;;;;;;;-8.47;87.04;102915.22;5018922;28;20233;-68
2024/01/09 07:22:36;;;;;;;58.53;20.93;;;;;;;-8.47;86.59;102917.78;5008188;28;20231;-69
2024/01/09 07:25:03;;;;;;;53.27;20.90;;;;;;;-8.50;86.90;102921.09;5017300;28;20202;-68
2024/01/09 07:27:29;;;;;;;24.40;11.90;;;;;;;-8.52;86.82;102927.88;5007827;28;20223;-70
2024/01/09 07:29:56;;;;;;;10.97;6.97;;;;;;;-8.53;86.82;102932.97;5016769;28;20662;-69
2024/01/09 07:32:22;;;;;;;11.10;7.10;;;;;;;-8.53;86.89;102922.63;5003694;28;20462;-68
2024/01/09 07:34:49;;;;;;;11.50;5.73;;;;;;;-8.50;87.47;102928.84;5017505;28;20198;-69
2024/01/09 07:37:16;;;;;;;12.40;6.50;;;;;;;-8.52;87.00;102924.41;5006217;28;20227;-68
2024/01/09 07:39:43;;;;;;;11.93;6.10;;;;;;;-8.54;87.15;102923.44;5006701;28;20952;-69
2024/01/09 07:42:12;;;;;;;12.27;6.57;;;;;;;-8.55;86.91;102930.31;5007017;28;20226;-68
2024/01/09 07:44:38;;;;;;;12.90;6.00;;;;;;;-8.55;86.96;102930.31;5012207;28;20214;-68
2024/01/09 07:47:07;;;;;;;11.67;6.47;;;;;;;-8.56;87.28;102931.13;5010322;28;20229;-68
2024/01/09 07:49:34;;;;;;;12.47;5.50;;;;;;;-8.53;87.16;102938.13;5009435;28;20213;-66
2024/01/09 07:52:00;;;;;;;13.07;6.40;;;;;;;-8.54;87.49;102942.41;5009000;28;20225;-67
2024/01/09 07:54:27;;;;;;;12.63;6.53;;;;;;;-8.55;87.54;102947.50;5011438;28;20218;-67
2024/01/09 07:56:54;;;;;;;8.93;5.17;;;;;;;-8.53;87.51;102943.31;5012955;28;20199;-68
2024/01/09 07:59:21;;;;;;;11.53;6.47;;;;;;;-8.54;87.04;102957.91;5004084;28;20465;-68
2024/01/09 08:01:53;;;;;;;14.57;6.57;;;;;;;-8.54;87.12;102957.91;5012817;28;20295;-68
2024/01/09 08:04:20;;;;;;;13.20;6.47;;;;;;;-8.50;87.63;102957.28;5008957;28;20211;-67
2024/01/09 08:06:46;;;;;;;9.23;5.67;;;;;;;-8.55;87.46;102961.31;5015742;28;20223;-69
2024/01/09 08:09:13;;;;;;;12.53;6.07;;;;;;;-8.53;87.30;102964.88;5005628;28;20836;-68
2024/01/09 08:11:39;;;;;;;14.83;6.90;;;;;;;-8.50;87.30;102969.31;5012718;28;20492;-65
2024/01/09 08:14:07;;;;;;;14.07;6.10;;;;;;;-8.49;87.17;102968.50;5001550;28;20214;-67
2024/01/09 08:16:33;;;;;;;12.40;6.33;;;;;;;-8.50;87.16;102966.72;5008315;28;20460;-68
2024/01/09 08:19:00;;;;;;;15.33;6.60;;;;;;;-8.47;87.56;102964.28;5011689;28;20539;-68
2024/01/09 08:21:27;;;;;;;11.57;6.17;;;;;;;-8.46;87.12;102961.78;5007516;28;20471;-69
2024/01/09 08:23:53;;;;;;;13.83;6.93;;;;;;;-8.46;87.52;102960.91;5009503;28;20206;-68
2024/01/09 08:26:19;;;;;;;12.27;6.43;;;;;;;-8.46;87.34;102969.53;5010910;28;20215;-68
2024/01/09 08:28:46;;;;;;;15.03;6.80;;;;;;;-8.42;88.45;102962.84;5006951;28;20218;-68
2024/01/09 08:31:14;;;;;;;11.60;7.07;;;;;;;-8.39;88.03;102969.84;5017062;28;20233;-68
2024/01/09 08:33:40;;;;;;;11.73;6.43;;;;;;;-8.38;87.92;102966.44;5019006;28;20607;-68
2024/01/09 08:36:07;;;;;;;15.47;7.03;;;;;;;-8.33;88.13;102970.16;5010807;28;20577;-68
2024/01/09 08:38:33;;;;;;;11.13;6.60;;;;;;;-8.30;88.00;102967.69;5012230;28;20237;-68
2024/01/09 08:41:02;;;;;;;15.43;6.80;;;;;;;-8.25;87.79;102961.97;5008205;28;20714;-67
2024/01/09 08:43:29;;;;;;;15.10;7.13;;;;;;;-8.26;87.68;102978.28;5022148;28;20891;-69
2024/01/09 08:45:55;;;;;;;16.90;8.33;;;;;;;-8.22;88.20;102963.78;5019107;28;20578;-68
2024/01/09 08:48:23;;;;;;;13.27;6.27;;;;;;;-8.21;88.27;102966.44;5017818;28;20261;-67
2024/01/09 08:50:50;;;;;;;17.97;7.87;;;;;;;-8.17;87.62;102970.06;5022492;28;20206;-68
2024/01/09 08:53:16;;;;;;;17.47;7.20;;;;;;;-8.16;87.91;102964.97;5007017;28;20234;-67
2024/01/09 08:55:43;;;;;;;16.27;7.10;;;;;;;-8.11;87.26;102971.28;5013849;28;20202;-68
2024/01/09 08:58:09;;;;;;;17.57;8.70;;;;;;;-8.07;87.06;102969.75;5010125;28;20206;-69
2024/01/09 09:00:35;;;;;;;13.70;8.07;;;;;;;-8.03;86.81;102978.50;5018848;28;20214;-68
2024/01/09 09:03:02;;;;;;;13.23;8.00;;;;;;;-7.98;87.22;102977.94;5016220;28;20739;-68
2024/01/09 09:05:30;;;;;;;12.17;6.50;;;;;;;-7.96;86.95;102970.25;5015907;28;20711;-68
2024/01/09 09:07:57;;;;;;;17.53;7.60;;;;;;;-7.96;87.07;102971.13;5005413;28;20249;-67
2024/01/09 09:10:23;;;;;;;16.87;8.13;;;;;;;-7.93;86.99;102962.66;5001606;28;20748;-68
2024/01/09 09:12:49;;;;;;;16.77;8.20;;;;;;;-7.93;86.87;102965.22;5004155;28;20226;-68
2024/01/09 09:15:16;;;;;;;14.33;7.73;;;;;;;-7.87;86.68;102966.41;5005429;28;20219;-67
2024/01/09 09:17:43;;;;;;;13.80;6.40;;;;;;;-7.85;87.36;102962.19;5007833;28;20195;-68
2024/01/09 09:20:11;;;;;;;13.30;7.93;;;;;;;-7.82;87.19;102964.03;5007955;28;20206;-68
2024/01/09 09:22:39;;;;;;;17.53;8.50;;;;;;;-7.74;87.01;102965.31;5012651;28;20265;-68
2024/01/09 09:25:07;;;;;;;17.23;8.77;;;;;;;-7.75;87.08;102961.84;5007033;28;20204;-69
2024/01/09 09:27:34;;;;;;;14.93;7.40;;;;;;;-7.71;87.17;102960.28;5011243;28;20317;-68
2024/01/09 09:30:01;;;;;;;18.03;7.27;;;;;;;-7.63;87.56;102965.81;5015589;28;20202;-68
2024/01/09 09:32:28;;;;;;;18.27;7.43;;;;;;;-7.58;86.94;102966.94;5011831;28;20306;-69
2024/01/09 09:34:54;;;;;;;17.83;8.83;;;;;;;-7.51;86.03;102962.09;5010089;28;20454;-68
2024/01/09 09:37:21;;;;;;;14.93;7.90;;;;;;;-7.46;86.61;102965.78;5003169;28;20204;-68
2024/01/09 09:39:49;;;;;;;16.47;8.27;;;;;;;-7.41;85.37;102969.50;5009263;28;20199;-68
2024/01/09 09:42:16;;;;;;;16.33;8.10;;;;;;;-7.37;85.25;102965.34;5000176;28;20257;-67
2024/01/09 09:44:46;;;;;;;13.00;7.67;;;;;;;-7.33;84.87;102964.66;5007538;28;20221;-68
2024/01/09 09:47:15;;;;;;;16.77;8.47;;;;;;;-7.22;84.42;102966.06;5004913;28;20697;-68
2024/01/09 09:49:43;;;;;;;13.53;7.13;;;;;;;-7.15;83.90;102962.91;5006888;28;20210;-68
2024/01/09 09:52:10;;;;;;;12.57;7.77;;;;;;;-7.15;83.51;102962.91;5007120;28;20219;-68
2024/01/09 09:54:38;;;;;;;14.43;7.57;;;;;;;-7.11;82.93;102959.66;5003267;28;20633;-67
2024/01/09 09:57:07;;;;;;;14.83;7.80;;;;;;;-7.12;82.67;102960.47;4992119;28;20203;-67
2024/01/09 09:59:33;;;;;;;18.30;9.00;;;;;;;-7.09;82.53;102949.34;5001037;28;20210;-67
2024/01/09 10:02:06;;;;;;;11.03;5.93;;;;;;;-7.01;81.98;102955.78;5004225;28;20244;-68
2024/01/09 10:04:42;;;;;;;14.03;5.03;;;;;;;-7.00;80.82;102947.19;4999445;28;20226;-67
2024/01/09 10:07:08;;;;;;;13.80;5.93;;;;;;;-6.98;80.73;102947.25;5007823;28;20221;-67
2024/01/09 10:09:37;;;;;;;14.17;7.57;;;;;;;-6.99;80.73;102940.31;5009937;28;20744;-67
2024/01/09 10:12:06;;;;;;;15.90;9.60;;;;;;;-6.90;81.20;102932.94;5007145;28;20281;-68
2024/01/09 10:14:32;;;;;;;13.57;7.53;;;;;;;-6.84;81.19;102948.75;5006355;28;20588;-68
2024/01/09 10:17:03;;;;;;;13.17;6.37;;;;;;;-6.80;80.12;102936.00;5009658;28;20210;-67
2024/01/09 10:19:29;;;;;;;12.87;6.03;;;;;;;-6.79;79.31;102929.09;5010613;28;20207;-68
2024/01/09 10:21:56;;;;;;;10.50;5.70;;;;;;;-6.79;79.58;102931.69;5008576;28;20239;-67
2024/01/09 10:24:23;;;;;;;9.07;5.50;;;;;;;-6.77;78.87;102935.25;5007780;28;20596;-67
2024/01/09 10:26:51;;;;;;;13.10;7.27;;;;;;;-6.79;78.63;102930.00;5009490;28;21251;-67
2024/01/09 10:29:19;;;;;;;13.57;7.07;;;;;;;-6.80;78.67;102930.81;5006065;28;20206;-68
2024/01/09 10:31:46;;;;;;;10.47;6.07;;;;;;;-6.74;78.97;102930.19;5015940;28;20222;-67
2024/01/09 10:34:12;;;;;;;14.73;7.77;;;;;;;-6.77;78.79;102925.75;5010600;28;20686;-68
2024/01/09 10:36:39;;;;;;;12.20;7.47;;;;;;;-6.74;78.87;102923.31;5014043;28;20285;-69
2024/01/09 10:39:06;;;;;;;14.83;7.63;;;;;;;-6.71;79.06;102923.44;5016296;28;20610;-67
2024/01/09 10:41:33;;;;;;;18.20;8.47;;;;;;;-6.62;78.89;102930.72;5017507;28;20230;-68
2024/01/09 10:44:00;;;;;;;15.47;8.07;;;;;;;-6.56;79.09;102919.72;5017292;28;20202;-68
2024/01/09 10:46:31;;;;;;;15.80;8.07;;;;;;;-6.57;78.64;102918.84;5018875;28;20268;-68
2024/01/09 10:48:58;;;;;;;12.27;7.57;;;;;;;-6.52;78.55;102912.16;5017266;28;20221;-69
2024/01/09 10:51:25;;;;;;;15.23;7.37;;;;;;;-6.47;79.02;102918.44;5020584;28;20230;-68
2024/01/09 10:53:52;;;;;;;17.50;8.27;;;;;;;-6.40;78.29;102910.06;5021986;28;20756;-68
2024/01/09 10:56:21;;;;;;;14.00;7.23;;;;;;;-6.39;78.50;102909.25;5019879;28;20214;-67
2024/01/09 10:58:49;;;;;;;13.67;6.97;;;;;;;-6.35;78.33;102898.19;5020372;28;20203;-68
2024/01/09 11:01:16;;;;;;;13.87;7.63;;;;;;;-6.32;78.11;102898.34;5014310;28;20235;-68
2024/01/09 11:03:44;;;;;;;15.40;7.93;;;;;;;-6.28;78.42;102899.34;5020336;28;20203;-68
2024/01/09 11:06:11;;;;;;;16.07;7.37;;;;;;;-6.23;78.39;102895.22;5016717;28;20206;-68
2024/01/09 11:08:39;;;;;;;15.40;6.73;;;;;;;-6.21;77.59;102897.88;5016068;28;20233;-67
2024/01/09 11:11:09;;;;;;;16.73;7.70;;;;;;;-6.22;77.68;102896.09;5019831;28;20194;-68
2024/01/09 11:13:39;;;;;;;12.77;6.93;;;;;;;-6.19;77.27;102894.53;5014645;28;20199;-68
2024/01/09 11:16:09;;;;;;;13.47;7.10;;;;;;;-6.16;77.06;102888.56;5015078;28;20407;-68
2024/01/09 11:18:36;;;;;;;9.10;5.10;;;;;;;-6.09;76.22;102895.78;5015044;28;20228;-68